Time;durP1;ratioP1;P1;durP2;ratioP2;P2;SDS_P1;SDS_P2;PMS_P1;PMS_P2;Temp;Humidity;BMP_temperature;BMP_pressure;BME280_temperature;BME280_humidity;BME280_pressure;Samples;Min_cycle;Max_cycle;Signal;HPM_P1;HPM_P2
2022/06/04 00:01:27;;;;;;;5.75;4.20;;;;;;;18.15;49.93;98654.56;1775965;80;25952;-61
2022/06/04 00:03:54;;;;;;;5.15;3.95;;;;;;;18.09;49.99;98648.48;1775954;80;25659;-62
2022/06/04 00:06:20;;;;;;;6.10;4.08;;;;;;;18.05;50.22;98650.39;1775908;80;25658;-64
2022/06/04 00:08:45;;;;;;;5.87;5.35;;;;;;;18.01;50.54;98648.09;1776247;80;25422;-62
2022/06/04 00:16:42;;;;;;;7.78;4.62;;;;;;;17.90;51.05;98644.53;1785661;80;25661;-63
2022/06/04 00:19:08;;;;;;;8.25;5.53;;;;;;;17.88;50.79;98640.52;1785944;80;26563;-62
2022/06/04 00:21:33;;;;;;;6.60;4.70;;;;;;;17.88;51.00;98649.63;1786045;80;25462;-64
2022/06/04 00:23:59;;;;;;;4.72;4.20;;;;;;;17.83;51.60;98644.38;1786102;80;28376;-64
2022/06/04 00:26:26;;;;;;;6.55;4.35;;;;;;;17.76;51.69;98649.78;1786166;80;25455;-62
2022/06/04 00:28:52;;;;;;;5.03;4.17;;;;;;;17.78;51.33;98649.63;1785662;80;25783;-64
2022/06/04 00:31:19;;;;;;;5.05;3.92;;;;;;;17.79;51.53;98647.06;1786165;80;25734;-65
2022/06/04 00:33:46;;;;;;;8.25;3.87;;;;;;;17.73;51.90;98647.13;1786038;80;25752;-65
2022/06/04 00:36:21;;;;;;;5.42;3.98;;;;;;;17.69;51.96;98642.10;1786095;80;28172;-64
2022/06/04 00:38:50;;;;;;;6.05;4.22;;;;;;;17.67;52.23;98632.77;1785346;80;25589;-62
2022/06/04 00:41:43;;;;;;;5.45;3.98;;;;;;;17.70;52.06;98639.54;1786094;80;25700;-60
2022/06/04 00:44:56;;;;;;;9.43;4.70;;;;;;;17.71;52.29;98635.63;1784620;80;25746;-60
2022/06/04 00:47:41;;;;;;;5.35;4.12;;;;;;;17.71;52.00;98634.81;1785283;80;25543;-63
2022/06/04 00:50:16;;;;;;;7.20;4.28;;;;;;;17.72;52.13;98630.30;1784214;80;27053;-61
2022/06/04 00:52:55;;;;;;;6.90;4.75;;;;;;;17.70;52.33;98626.28;1786086;80;25578;-56
2022/06/04 00:55:25;;;;;;;8.15;4.60;;;;;;;17.70;52.41;98620.74;1785404;80;25908;-63
2022/06/04 00:58:05;;;;;;;6.22;4.75;;;;;;;17.66;52.22;98613.16;1786438;80;25648;-62
2022/06/04 01:00:57;;;;;;;6.70;4.47;;;;;;;17.63;52.44;98612.49;1785855;80;25581;-61
2022/06/04 01:03:44;;;;;;;7.67;5.80;;;;;;;17.60;52.68;98606.30;1786116;80;27496;-63
2022/06/04 01:06:25;;;;;;;4.55;4.15;;;;;;;17.60;52.55;98603.52;1786024;80;25713;-62
2022/06/04 01:09:02;;;;;;;6.20;4.58;;;;;;;17.60;52.70;98600.75;1785692;80;25570;-61
2022/06/04 01:14:56;;;;;;;6.17;5.03;;;;;;;17.58;52.83;98594.76;1785810;79;25660;-58
2022/06/04 01:17:50;;;;;;;5.35;4.50;;;;;;;17.52;53.16;98592.05;1785969;80;29515;-63
2022/06/04 01:20:30;;;;;;;6.62;4.83;;;;;;;17.48;53.47;98587.02;1785927;80;25729;-60
2022/06/04 01:23:34;;;;;;;5.25;4.22;;;;;;;17.42;53.74;98594.81;1785972;80;35320;-59
2022/06/04 01:26:45;;;;;;;6.08;4.67;;;;;;;17.42;53.74;98594.81;1785324;80;25751;-59
2022/06/04 01:29:23;;;;;;;5.35;4.60;;;;;;;17.39;53.59;98590.78;1786369;80;25550;-59
2022/06/04 01:32:10;;;;;;;6.58;5.30;;;;;;;17.40;53.65;98592.98;1786056;79;26925;-61
2022/06/04 01:35:02;;;;;;;8.63;5.30;;;;;;;17.34;54.09;98586.93;1785325;79;25724;-59
2022/06/04 01:38:02;;;;;;;7.20;5.47;;;;;;;17.34;53.88;98590.27;1779031;80;25642;-58
2022/06/04 01:43:25;;;;;;;9.10;4.83;;;;;;;17.30;54.21;98590.21;1785811;80;25598;-63
2022/06/04 01:45:56;;;;;;;7.20;5.00;;;;;;;17.32;54.38;98590.63;1786254;80;27372;-65
2022/06/04 01:48:25;;;;;;;9.25;4.60;;;;;;;17.32;54.46;98585.70;1786025;80;25532;-64
2022/06/04 01:50:57;;;;;;;7.45;5.17;;;;;;;17.33;54.37;98581.75;1786152;80;25673;-64
2022/06/04 01:53:29;;;;;;;7.53;4.97;;;;;;;17.34;54.50;98579.19;1786289;80;25687;-62
2022/06/04 01:55:59;;;;;;;8.35;6.70;;;;;;;17.32;54.35;98576.78;1784330;80;25462;-62
2022/06/04 01:58:34;;;;;;;7.33;5.25;;;;;;;17.29;54.74;98576.13;1786462;80;27534;-62
2022/06/04 02:01:05;;;;;;;6.05;4.67;;;;;;;17.30;54.47;98574.98;1784871;80;25466;-63
2022/06/04 02:03:58;;;;;;;7.03;4.87;;;;;;;17.30;54.65;98570.82;1784146;80;25667;-61
2022/06/04 02:06:39;;;;;;;8.33;4.78;;;;;;;17.29;54.70;98567.24;1785939;80;25943;-60
2022/06/04 02:09:15;;;;;;;7.95;4.70;;;;;;;17.30;54.81;98570.22;1784584;80;25419;-59
2022/06/04 02:11:52;;;;;;;6.33;4.33;;;;;;;17.34;54.72;98566.73;1784971;80;28285;-61
2022/06/04 02:14:19;;;;;;;7.15;5.00;;;;;;;17.33;54.96;98562.36;1786099;79;25621;-58
2022/06/04 02:16:56;;;;;;;8.65;4.97;;;;;;;17.34;54.70;98563.96;1786363;80;25682;-58
2022/06/04 02:19:23;;;;;;;5.62;4.47;;;;;;;17.35;54.66;98566.94;1786329;80;26419;-59
2022/06/04 02:21:49;;;;;;;7.55;5.17;;;;;;;17.33;54.85;98559.02;1786508;80;25471;-61
2022/06/04 02:24:15;;;;;;;7.40;5.33;;;;;;;17.37;54.80;98555.73;1786299;80;28409;-64
2022/06/04 02:26:42;;;;;;;6.92;4.80;;;;;;;17.41;54.80;98551.64;1786358;80;25925;-64
2022/06/04 02:29:08;;;;;;;5.35;4.45;;;;;;;17.41;55.03;98550.27;1786217;80;25609;-64
2022/06/04 02:32:10;;;;;;;5.15;4.50;;;;;;;17.34;55.07;98551.50;1786316;80;26472;-64
2022/06/04 02:35:06;;;;;;;7.00;4.75;;;;;;;17.32;55.16;98549.09;1786459;80;25685;-62
2022/06/04 02:38:01;;;;;;;7.37;4.80;;;;;;;17.28;55.34;98538.52;1724652;83;28422;-58
2022/06/04 02:40:48;;;;;;;5.17;4.58;;;;;;;17.30;55.09;98545.90;1720079;83;26058;-59
2022/06/04 02:43:22;;;;;;;7.95;5.00;;;;;;;17.32;55.14;98537.23;1660917;86;25691;-58
2022/06/04 02:46:27;;;;;;;5.75;4.53;;;;;;;17.32;55.31;98538.61;1660665;86;25922;-61
2022/06/04 02:49:08;;;;;;;7.40;4.70;;;;;;;17.28;55.59;98536.56;1661184;86;25778;-58
2022/06/04 02:51:46;;;;;;;5.80;4.92;;;;;;;17.28;55.64;98539.34;1660722;86;28156;-58
2022/06/04 02:54:18;;;;;;;7.78;5.08;;;;;;;17.29;55.73;98540.12;1660374;86;25767;-58
2022/06/04 02:56:47;;;;;;;7.20;5.25;;;;;;;17.20;55.61;98538.95;1660891;86;25728;-58
2022/06/04 02:59:16;;;;;;;5.85;4.97;;;;;;;17.17;56.07;98541.05;1660455;86;26537;-57
2022/06/04 03:01:47;;;;;;;8.38;5.37;;;;;;;17.16;55.86;98536.69;1660766;86;25737;-57
2022/06/04 03:04:13;;;;;;;8.20;5.58;;;;;;;17.14;56.28;98534.28;1661076;86;28247;-63
2022/06/04 03:06:40;;;;;;;5.97;4.95;;;;;;;17.11;56.13;98543.30;1660357;86;25721;-62
2022/06/04 03:09:10;;;;;;;8.53;5.40;;;;;;;17.10;56.69;98539.52;1660755;86;25523;-64
2022/06/04 03:11:45;;;;;;;;;;;;;;;17.05;56.78;98544.72;1663327;86;25826;-60
2022/06/04 03:14:13;;;;;;;6.85;5.15;;;;;;;17.03;56.63;98543.69;1681136;82;25752;-62
2022/06/04 03:16:43;;;;;;;7.25;5.78;;;;;;;17.00;57.02;98551.33;1726154;80;27823;-61
2022/06/04 03:19:10;;;;;;;7.97;4.62;;;;;;;17.04;56.93;98548.66;1786210;80;25720;-62
2022/06/04 03:21:39;;;;;;;8.15;5.25;;;;;;;17.02;57.28;98547.63;1785723;80;25401;-63
2022/06/04 03:24:09;;;;;;;7.65;5.95;;;;;;;17.00;57.24;98541.64;1785814;80;26604;-62
2022/06/04 03:26:36;;;;;;;9.25;6.83;;;;;;;17.02;57.32;98546.25;1786288;80;25659;-63
2022/06/04 03:29:03;;;;;;;9.65;6.30;;;;;;;17.04;57.35;98550.04;1786123;80;27468;-62
2022/06/04 03:31:30;;;;;;;9.13;5.30;;;;;;;17.01;57.43;98549.38;1785678;80;25479;-60
2022/06/04 03:33:56;;;;;;;7.20;5.78;;;;;;;17.02;57.82;98548.20;1785968;80;25459;-62
2022/06/04 03:36:28;;;;;;;7.22;5.67;;;;;;;16.98;57.77;98545.34;1786110;80;26420;-63
2022/06/04 03:38:57;;;;;;;7.67;6.00;;;;;;;16.99;57.93;98551.69;1784477;80;25597;-59
2022/06/04 03:41:25;;;;;;;7.87;5.72;;;;;;;16.95;58.28;98550.21;1786061;80;28285;-60
2022/06/04 03:43:55;;;;;;;7.75;5.85;;;;;;;16.95;58.12;98556.34;1786073;80;25488;-61
2022/06/04 03:46:27;;;;;;;9.20;6.20;;;;;;;16.97;58.46;98547.90;1785929;80;25664;-59
2022/06/04 03:48:56;;;;;;;8.30;6.08;;;;;;;16.97;58.44;98554.81;1785654;80;25798;-63
2022/06/04 03:51:26;;;;;;;6.72;5.87;;;;;;;17.02;59.59;98560.09;1786052;80;25665;-62
2022/06/04 03:53:52;;;;;;;9.03;6.42;;;;;;;17.00;59.38;98559.63;1786021;80;28272;-59
2022/06/04 03:56:19;;;;;;;7.45;6.60;;;;;;;16.98;59.95;98559.78;1786136;80;25592;-58
2022/06/04 03:58:45;;;;;;;8.18;6.30;;;;;;;16.96;61.09;98567.06;1786263;80;25446;-57
2022/06/04 04:01:24;;;;;;;8.70;6.03;;;;;;;16.97;60.66;98565.89;1786050;80;26477;-58
2022/06/04 04:03:51;;;;;;;9.00;6.10;;;;;;;16.99;60.98;98559.99;1786016;80;25582;-57
2022/06/04 04:06:24;;;;;;;8.45;5.20;;;;;;;17.01;61.47;98570.14;1785721;80;27444;-56
2022/06/04 04:08:52;;;;;;;7.08;6.05;;;;;;;17.03;61.89;98587.17;1786014;80;25415;-57
2022/06/04 04:11:21;;;;;;;10.53;6.60;;;;;;;16.98;62.99;98649.75;1786127;80;25628;-56
2022/06/04 04:13:48;;;;;;;7.50;6.57;;;;;;;16.91;64.04;98629.03;1786219;80;25764;-56
2022/06/04 04:16:17;;;;;;;10.18;6.60;;;;;;;16.81;65.14;98650.30;1785957;79;25731;-58
2022/06/04 04:18:43;;;;;;;9.25;7.05;;;;;;;16.79;65.47;98638.23;1786276;80;27361;-57
2022/06/04 04:21:14;;;;;;;9.33;7.05;;;;;;;16.78;65.37;98651.81;1786314;80;25447;-56
2022/06/04 04:23:42;;;;;;;11.57;7.80;;;;;;;16.74;66.06;98645.39;1786263;80;25727;-56
2022/06/04 04:26:10;;;;;;;10.53;7.87;;;;;;;16.74;66.84;98644.58;1786338;80;25747;-60
2022/06/04 04:28:37;;;;;;;11.22;7.35;;;;;;;16.74;66.82;98642.63;1786298;80;25748;-57
2022/06/04 04:31:10;;;;;;;14.53;7.47;;;;;;;16.76;66.97;98638.94;1786048;80;27667;-61
2022/06/04 04:33:36;;;;;;;12.18;7.03;;;;;;;16.73;66.96;98639.65;1785309;80;25712;-60
2022/06/04 04:36:03;;;;;;;9.25;6.53;;;;;;;16.73;67.20;98629.97;1786399;80;25662;-58
2022/06/04 04:38:29;;;;;;;9.05;6.62;;;;;;;16.74;68.21;98627.98;1786288;80;25796;-61
2022/06/04 04:40:56;;;;;;;8.08;6.87;;;;;;;16.72;68.34;98633.87;1786039;80;25855;-60
2022/06/04 04:43:22;;;;;;;12.63;8.13;;;;;;;16.70;68.56;98632.62;1785942;80;27452;-61
2022/06/04 04:45:48;;;;;;;9.55;7.35;;;;;;;16.64;68.92;98627.34;1786239;80;25633;-59
2022/06/04 04:48:20;;;;;;;10.70;7.37;;;;;;;16.63;70.25;98629.90;1786358;80;25788;-60
2022/06/04 04:50:53;;;;;;;10.20;7.33;;;;;;;16.57;70.44;98625.78;1786369;80;25837;-59
2022/06/04 04:53:25;;;;;;;13.10;8.20;;;;;;;16.53;70.87;98627.06;1786218;80;25543;-59
2022/06/04 04:55:51;;;;;;;10.93;7.30;;;;;;;16.48;71.00;98621.80;1786276;80;28265;-60
2022/06/04 04:58:17;;;;;;;10.88;8.00;;;;;;;16.45;72.29;98624.47;1785966;80;25712;-60
2022/06/04 05:00:44;;;;;;;10.88;8.18;;;;;;;16.42;72.07;98624.03;1786472;80;25712;-60
2022/06/04 05:03:11;;;;;;;11.73;7.65;;;;;;;16.40;72.01;98627.72;1785955;80;25766;-60
2022/06/04 05:05:37;;;;;;;11.97;8.98;;;;;;;16.41;72.53;98616.88;1786245;80;25462;-61
2022/06/04 05:08:04;;;;;;;11.35;8.13;;;;;;;16.41;72.77;98626.55;1786249;80;28331;-60
2022/06/04 05:10:30;;;;;;;11.20;8.33;;;;;;;16.39;73.59;98618.40;1786154;80;25991;-58
2022/06/04 05:12:57;;;;;;;11.05;8.00;;;;;;;16.38;75.04;98622.33;1785928;80;25643;-59
2022/06/04 05:15:24;;;;;;;10.13;7.78;;;;;;;16.36;74.75;98626.83;1784945;80;26606;-63
2022/06/04 05:17:49;;;;;;;13.85;9.58;;;;;;;16.34;75.62;98631.90;1783738;79;25735;-58
2022/06/04 05:20:16;;;;;;;11.33;8.70;;;;;;;16.34;75.09;98626.94;1784174;80;27384;-57
2022/06/04 05:22:43;;;;;;;13.93;9.38;;;;;;;16.33;75.81;98628.11;1784035;79;25570;-60
2022/06/04 05:25:10;;;;;;;12.05;10.13;;;;;;;16.32;75.68;98641.12;1784048;80;25613;-59
2022/06/04 05:27:36;;;;;;;13.75;10.50;;;;;;;16.32;75.39;98638.36;1783735;80;25661;-59
2022/06/04 05:30:05;;;;;;;13.58;10.70;;;;;;;16.36;75.45;98641.23;1784275;79;25384;-58
2022/06/04 05:32:31;;;;;;;14.43;10.68;;;;;;;16.38;75.68;98638.92;1784102;79;27459;-60
2022/06/04 05:34:57;;;;;;;12.20;10.68;;;;;;;16.45;76.02;98645.20;1784129;79;25671;-58
2022/06/04 05:37:23;;;;;;;12.37;10.08;;;;;;;16.44;76.26;98648.58;1784302;80;25419;-61
2022/06/04 05:39:49;;;;;;;14.35;10.68;;;;;;;16.51;76.43;98650.14;1784286;79;25872;-62
2022/06/04 05:42:15;;;;;;;14.68;10.82;;;;;;;16.55;76.74;98652.42;1783722;79;25702;-62
2022/06/04 05:44:42;;;;;;;18.45;12.40;;;;;;;16.61;77.06;98652.17;1784341;79;27467;-59
2022/06/04 05:47:08;;;;;;;15.53;10.43;;;;;;;16.76;77.18;98662.45;1784374;79;25648;-60
2022/06/04 05:49:34;;;;;;;46.68;21.48;;;;;;;16.75;76.87;98667.75;1784395;79;25623;-58
2022/06/04 05:52:00;;;;;;;39.25;18.82;;;;;;;16.77;77.17;98673.74;1783896;79;26116;-61
2022/06/04 05:54:26;;;;;;;18.32;11.80;;;;;;;16.75;77.74;98670.52;1784423;79;25726;-61
2022/06/04 05:56:53;;;;;;;25.62;15.38;;;;;;;16.72;78.49;98667.67;1783961;79;27406;-58
2022/06/04 05:59:22;;;;;;;15.23;10.40;;;;;;;16.73;78.16;98669.27;1784081;79;25636;-60
2022/06/04 06:01:50;;;;;;;14.53;10.30;;;;;;;16.73;78.32;98675.62;1784156;79;25467;-58
2022/06/04 06:04:18;;;;;;;11.70;9.53;;;;;;;16.78;78.38;98681.47;1783962;79;26175;-58
2022/06/04 06:06:48;;;;;;;13.98;9.90;;;;;;;16.86;79.30;98681.87;1784272;80;25394;-58
2022/06/04 06:09:18;;;;;;;12.73;9.68;;;;;;;16.85;80.54;98685.80;1784360;79;27346;-58
2022/06/04 06:11:45;;;;;;;12.75;9.88;;;;;;;16.79;80.50;98678.92;1784276;80;25458;-57
2022/06/04 06:14:13;;;;;;;10.85;9.70;;;;;;;16.71;80.30;98686.23;1784178;79;25576;-58
2022/06/04 06:16:43;;;;;;;12.55;9.50;;;;;;;16.71;80.53;98678.50;1785613;80;26733;-58
2022/06/04 06:19:11;;;;;;;14.83;10.25;;;;;;;16.70;80.62;98673.56;1786238;80;25456;-58
2022/06/04 06:21:38;;;;;;;13.95;9.75;;;;;;;16.66;80.29;98663.77;1786068;80;27333;-58
2022/06/04 06:24:12;;;;;;;13.75;10.88;;;;;;;16.66;81.23;98667.92;1785766;80;26469;-57
2022/06/04 06:26:48;;;;;;;15.40;10.48;;;;;;;16.74;80.94;98667.53;1784140;80;25596;-57
2022/06/04 06:29:17;;;;;;;14.40;10.15;;;;;;;16.83;81.20;98668.74;1785458;80;26836;-58
2022/06/04 06:31:43;;;;;;;13.72;10.88;;;;;;;16.96;80.93;98671.43;1785814;80;25442;-57
2022/06/04 06:34:11;;;;;;;12.82;10.00;;;;;;;17.04;80.76;98682.92;1786145;80;27912;-57
2022/06/04 06:36:38;;;;;;;14.73;11.03;;;;;;;17.13;81.27;98685.53;1785864;80;25637;-57
2022/06/04 06:39:05;;;;;;;11.63;9.73;;;;;;;17.15;81.30;98670.16;1785808;80;25684;-57
2022/06/04 06:41:33;;;;;;;12.93;9.63;;;;;;;17.24;80.71;98671.95;1785982;80;26362;-58
2022/06/04 06:43:59;;;;;;;12.23;9.15;;;;;;;17.32;79.59;98674.32;1786098;80;25420;-57
2022/06/04 06:46:33;;;;;;;13.10;9.93;;;;;;;17.34;79.58;98670.59;1786164;80;27583;-58
2022/06/04 06:49:19;;;;;;;15.80;10.63;;;;;;;17.41;80.70;98667.41;1785296;80;25940;-57
2022/06/04 06:51:51;;;;;;;15.53;11.00;;;;;;;17.61;80.86;98659.14;1785867;80;25391;-58
2022/06/04 06:54:20;;;;;;;11.12;8.98;;;;;;;17.78;79.51;98659.33;1784720;80;26057;-58
2022/06/04 06:56:48;;;;;;;9.75;8.58;;;;;;;17.86;78.17;98660.29;1785933;80;25688;-58
2022/06/04 06:59:15;;;;;;;17.27;10.38;;;;;;;17.87;79.32;98661.08;1785985;80;26846;-58
2022/06/04 07:01:43;;;;;;;12.23;9.63;;;;;;;18.00;79.10;98663.14;1784687;78;25665;-57
2022/06/04 07:04:10;;;;;;;12.82;9.00;;;;;;;18.21;79.27;98673.09;1785815;80;25641;-59
2022/06/04 07:06:40;;;;;;;9.40;8.25;;;;;;;18.28;77.31;98671.87;1785726;80;25644;-58
2022/06/04 07:09:09;;;;;;;;;;;;;;;18.24;77.45;98668.20;1788780;80;25669;-58
2022/06/04 07:11:36;;;;;;;14.10;9.55;;;;;;;18.31;77.87;98670.53;1784830;80;27603;-59
2022/06/04 07:14:02;;;;;;;11.30;8.33;;;;;;;18.62;78.16;98676.87;1785626;80;27186;-58
2022/06/04 07:16:30;;;;;;;10.80;8.58;;;;;;;18.76;76.70;98677.12;1785916;79;25476;-59
2022/06/04 07:18:57;;;;;;;10.38;8.48;;;;;;;18.82;75.18;98679.00;1785927;80;26741;-57
2022/06/04 07:21:23;;;;;;;12.78;8.83;;;;;;;19.00;75.12;98679.91;1786126;80;25557;-58
2022/06/04 07:23:50;;;;;;;12.23;9.20;;;;;;;19.10;75.04;98678.50;1785849;80;27479;-58
2022/06/04 07:26:17;;;;;;;10.75;8.40;;;;;;;19.40;76.71;98682.77;1786009;80;25621;-58
2022/06/04 07:28:43;;;;;;;11.83;8.53;;;;;;;19.83;74.00;98694.30;1785749;80;25725;-57
2022/06/04 07:31:12;;;;;;;11.25;8.20;;;;;;;20.04;70.47;98699.98;1786320;80;25805;-58
2022/06/04 07:33:44;;;;;;;11.48;8.18;;;;;;;20.01;70.14;98697.92;1785814;80;25396;-58
2022/06/04 07:36:18;;;;;;;11.53;8.73;;;;;;;20.02;71.16;98701.75;1786042;80;27468;-58
2022/06/04 07:38:46;;;;;;;9.98;7.78;;;;;;;20.20;69.98;98698.39;1784352;80;25576;-57
2022/06/04 07:41:25;;;;;;;8.40;6.85;;;;;;;20.22;68.30;98693.84;1785880;80;25760;-57
2022/06/04 07:43:52;;;;;;;7.85;6.03;;;;;;;20.31;68.42;98686.81;1786712;80;26589;-57
2022/06/04 07:46:21;;;;;;;7.95;6.70;;;;;;;20.43;65.57;98694.10;1785818;80;25560;-58
2022/06/04 07:48:47;;;;;;;7.37;6.55;;;;;;;20.24;67.24;98706.80;1785843;80;28303;-58
2022/06/04 07:51:15;;;;;;;9.33;7.30;;;;;;;20.26;67.16;98705.22;1785728;80;25697;-58
2022/06/04 07:53:42;;;;;;;7.83;6.58;;;;;;;20.56;67.84;98710.55;1785717;80;25578;-58
2022/06/04 07:56:14;;;;;;;9.25;7.00;;;;;;;20.64;64.76;98698.91;1786170;80;26138;-57
2022/06/04 07:58:42;;;;;;;8.45;6.45;;;;;;;20.55;63.83;98701.97;1785379;80;25565;-58
2022/06/04 08:01:14;;;;;;;7.80;6.85;;;;;;;20.46;65.04;98688.36;1786029;80;27507;-58
2022/06/04 08:03:40;;;;;;;10.68;7.33;;;;;;;20.44;65.99;98696.30;1785677;79;25605;-58
2022/06/04 08:06:07;;;;;;;9.15;6.87;;;;;;;20.50;66.06;98710.09;1786170;80;25443;-58
2022/06/04 08:08:34;;;;;;;8.53;7.40;;;;;;;20.52;65.17;98707.72;1785665;80;26168;-59
2022/06/04 08:11:30;;;;;;;8.43;7.20;;;;;;;20.49;64.91;98711.87;1786242;80;25416;-58
2022/06/04 08:13:30;;;;;;;8.58;6.83;;;;;;;20.42;64.59;98707.81;1781301;80;26073;-59
2022/06/04 08:16:01;;;;;;;8.58;6.72;;;;;;;20.33;64.07;98707.30;1785897;79;25411;-59
2022/06/04 08:18:28;;;;;;;9.73;7.75;;;;;;;20.26;64.68;98704.44;1785696;80;25638;-58
2022/06/04 08:20:54;;;;;;;9.03;7.67;;;;;;;20.21;65.13;98707.55;1785649;80;25768;-58
2022/06/04 08:23:21;;;;;;;10.38;8.13;;;;;;;20.18;65.21;98707.11;1786118;80;25393;-58
2022/06/04 08:25:50;;;;;;;9.93;7.62;;;;;;;20.26;65.77;98704.44;1786013;80;27472;-60
2022/06/04 08:28:18;;;;;;;10.55;8.10;;;;;;;20.30;65.24;98700.49;1786371;80;25681;-58
2022/06/04 08:30:46;;;;;;;11.80;8.00;;;;;;;20.41;66.24;98700.63;1786115;80;25656;-59
2022/06/04 08:33:12;;;;;;;10.28;8.20;;;;;;;20.52;64.85;98698.58;1786116;80;25742;-59
2022/06/04 08:35:39;;;;;;;11.10;8.68;;;;;;;20.76;65.94;98697.83;1785763;80;25635;-58
2022/06/04 08:38:06;;;;;;;11.18;8.10;;;;;;;21.12;65.48;98702.38;1785978;80;27634;-61
2022/06/04 08:40:43;;;;;;;12.03;8.90;;;;;;;21.41;64.17;98703.19;1785740;80;25635;-59
2022/06/04 08:43:56;;;;;;;9.90;8.90;;;;;;;21.59;63.91;98694.98;1784755;80;25653;-61
2022/06/04 08:46:34;;;;;;;11.55;8.90;;;;;;;21.62;63.35;98692.78;1721325;83;25699;-59
2022/06/04 08:49:15;;;;;;;10.38;9.03;;;;;;;21.64;62.67;98689.02;1721655;83;25726;-58
2022/06/04 08:51:43;;;;;;;11.60;9.25;;;;;;;21.75;64.69;98691.88;1721573;83;28185;-58
2022/06/04 08:59:58;;;;;;;8.88;7.67;;;;;;;22.28;62.07;98682.02;1721235;83;25482;-57
2022/06/04 09:02:30;;;;;;;12.20;9.58;;;;;;;22.38;60.88;98692.41;1721443;83;25648;-58
2022/06/04 09:05:13;;;;;;;12.43;9.23;;;;;;;22.47;63.46;98690.64;1721226;81;29450;-58
2022/06/04 09:07:48;;;;;;;9.55;8.63;;;;;;;22.76;62.23;98697.72;1720976;83;25802;-57
2022/06/04 09:10:22;;;;;;;9.95;8.33;;;;;;;22.75;61.14;98698.13;1721597;83;25749;-57
2022/06/04 09:12:56;;;;;;;11.30;9.15;;;;;;;22.60;61.80;98700.08;1721568;83;25691;-57
2022/06/04 09:15:29;;;;;;;9.50;8.13;;;;;;;22.73;61.98;98694.32;1720946;83;25498;-58
2022/06/04 09:17:58;;;;;;;9.13;7.78;;;;;;;22.80;61.05;98686.56;1721490;83;25709;-58
2022/06/04 09:20:37;;;;;;;9.25;8.15;;;;;;;22.58;61.88;98685.12;1721704;83;25484;-58
2022/06/04 09:23:16;;;;;;;10.20;7.87;;;;;;;22.39;61.25;98680.05;1742173;80;25577;-58
2022/06/04 09:25:50;;;;;;;8.40;7.60;;;;;;;22.15;62.18;98692.13;1770341;80;25776;-58
2022/06/04 09:28:54;;;;;;;9.93;8.43;;;;;;;22.21;62.37;98694.52;1785033;80;25629;-59
2022/06/04 09:31:37;;;;;;;9.25;8.28;;;;;;;22.11;61.85;98691.31;1785765;80;27554;-58
2022/06/04 09:34:19;;;;;;;9.18;7.50;;;;;;;22.25;62.55;98694.74;1785770;80;25752;-58
2022/06/04 09:36:48;;;;;;;8.10;7.30;;;;;;;22.33;62.08;98691.38;1785997;80;25593;-61
2022/06/04 09:39:25;;;;;;;10.28;8.25;;;;;;;22.43;61.83;98698.98;1786104;80;25817;-61
2022/06/04 09:42:06;;;;;;;8.75;7.67;;;;;;;22.48;62.16;98692.23;1786181;80;25570;-60
2022/06/04 09:44:37;;;;;;;8.60;7.70;;;;;;;22.41;61.36;98693.61;1785850;80;28379;-59
2022/06/04 09:47:24;;;;;;;8.63;7.60;;;;;;;22.28;62.46;98692.56;1786121;80;25637;-58
2022/06/04 09:49:58;;;;;;;11.95;8.38;;;;;;;22.31;61.45;98682.00;1751295;81;25776;-58
2022/06/04 09:52:36;;;;;;;9.40;8.45;;;;;;;22.31;62.41;98686.20;1750651;81;25684;-60
2022/06/04 09:55:20;;;;;;;8.68;7.78;;;;;;;22.45;62.33;98687.43;1751303;81;25737;-59
2022/06/04 09:58:03;;;;;;;8.85;7.95;;;;;;;22.54;62.45;98689.25;1751108;81;28004;-59
2022/06/04 10:00:36;;;;;;;10.20;7.78;;;;;;;22.51;62.20;98683.06;1751601;81;26016;-59
2022/06/04 10:03:14;;;;;;;8.60;7.70;;;;;;;22.65;62.36;98687.14;1751302;81;25523;-59
2022/06/04 10:06:11;;;;;;;10.03;7.97;;;;;;;22.75;62.29;98690.55;1748652;81;25812;-61
2022/06/04 10:11:35;;;;;;;9.65;8.68;;;;;;;23.31;60.56;98687.97;1751387;81;25739;-59
2022/06/04 10:14:03;;;;;;;10.68;8.10;;;;;;;23.28;60.42;98690.17;1751360;81;25435;-59
2022/06/04 10:16:42;;;;;;;9.53;8.18;;;;;;;23.42;60.92;98690.20;1750602;80;25581;-58
2022/06/04 10:19:21;;;;;;;9.55;8.23;;;;;;;23.81;61.17;98691.33;1748844;82;25908;-59
2022/06/04 10:21:52;;;;;;;8.93;8.10;;;;;;;24.38;60.22;98684.55;1749078;82;25714;-59
2022/06/04 10:24:26;;;;;;;9.15;8.15;;;;;;;24.46;57.96;98682.52;1749229;82;27866;-59
2022/06/04 10:27:16;;;;;;;9.68;8.65;;;;;;;24.55;58.46;98679.27;1776246;80;25673;-59
2022/06/04 10:30:00;;;;;;;9.45;8.55;;;;;;;24.47;57.67;98685.53;1778669;80;25424;-60
2022/06/04 10:32:41;;;;;;;10.88;8.93;;;;;;;24.54;58.13;98680.48;1778265;80;26002;-59
2022/06/04 10:35:53;;;;;;;9.25;8.03;;;;;;;25.05;57.71;98683.79;1777304;80;25585;-58
2022/06/04 10:38:30;;;;;;;11.85;8.68;;;;;;;25.48;57.85;98677.61;1777751;80;28289;-58
2022/06/04 10:41:17;;;;;;;8.43;7.60;;;;;;;25.50;55.89;98671.59;1776885;80;25969;-62
2022/06/04 10:44:24;;;;;;;7.62;6.90;;;;;;;25.58;55.82;98679.33;1778388;80;25562;-58
2022/06/04 10:47:08;;;;;;;8.35;6.55;;;;;;;25.67;54.89;98673.44;1778123;80;25888;-58
2022/06/04 10:50:09;;;;;;;9.15;6.25;;;;;;;25.55;54.82;98676.73;1778212;80;25391;-59
2022/06/04 10:52:52;;;;;;;7.37;6.45;;;;;;;25.24;54.70;98681.61;1778152;80;27563;-59
2022/06/04 10:55:29;;;;;;;7.20;6.45;;;;;;;25.03;55.04;98679.19;1778059;80;25381;-60
2022/06/04 10:58:19;;;;;;;7.10;6.40;;;;;;;24.81;56.15;98677.91;1777715;80;25601;-58
2022/06/04 11:01:03;;;;;;;7.90;7.00;;;;;;;24.63;56.09;98678.03;1778128;80;26335;-57
2022/06/04 11:04:05;;;;;;;7.10;6.35;;;;;;;24.48;56.93;98686.31;1778186;80;25540;-58
2022/06/04 11:06:45;;;;;;;8.48;6.70;;;;;;;24.46;56.77;98683.91;1777915;80;29580;-58
2022/06/04 11:09:19;;;;;;;8.70;7.80;;;;;;;24.43;57.58;98684.14;1777114;80;25661;-58
2022/06/04 11:11:59;;;;;;;9.75;8.80;;;;;;;24.37;58.23;98682.97;1778263;80;25419;-58
2022/06/04 11:14:42;;;;;;;11.30;8.95;;;;;;;24.34;59.24;98680.98;1778633;80;25668;-58
2022/06/04 11:17:19;;;;;;;9.88;8.88;;;;;;;24.23;59.16;98687.25;1781811;79;25645;-60
2022/06/04 11:19:54;;;;;;;9.28;8.28;;;;;;;24.17;59.90;98683.45;1786168;80;27469;-58
2022/06/04 11:22:37;;;;;;;9.70;8.70;;;;;;;24.11;59.81;98685.05;1786058;80;25628;-61
2022/06/04 11:25:29;;;;;;;9.80;8.75;;;;;;;24.06;59.30;98687.66;1786287;80;25641;-57
2022/06/04 11:28:12;;;;;;;11.88;8.45;;;;;;;24.13;59.55;98687.45;1785992;80;25663;-60
2022/06/04 11:30:56;;;;;;;8.93;8.03;;;;;;;24.01;59.79;98680.30;1786148;80;25391;-58
2022/06/04 11:33:40;;;;;;;8.93;8.03;;;;;;;24.13;60.30;98684.64;1785996;80;29444;-58
2022/06/04 11:36:12;;;;;;;9.70;8.60;;;;;;;24.33;59.91;98692.59;1784457;80;25613;-60
2022/06/04 11:38:43;;;;;;;9.95;8.23;;;;;;;24.50;59.20;98691.72;1786428;80;25478;-61
2022/06/04 11:41:43;;;;;;;9.05;8.00;;;;;;;24.57;59.29;98690.87;1786162;80;25690;-57
2022/06/04 11:44:47;;;;;;;9.40;6.80;;;;;;;24.76;58.97;98687.36;1785702;80;25645;-57
2022/06/04 11:47:34;;;;;;;8.08;7.17;;;;;;;24.90;58.36;98690.08;1786002;80;27470;-57
2022/06/04 11:50:33;;;;;;;8.83;7.05;;;;;;;24.89;56.91;98697.50;1784485;80;25636;-58
2022/06/04 11:53:36;;;;;;;7.63;6.80;;;;;;;24.89;57.65;98690.49;1786563;80;25689;-57
2022/06/04 11:56:39;;;;;;;8.43;7.00;;;;;;;25.10;57.64;98685.33;1786188;80;25729;-57
2022/06/04 11:59:32;;;;;;;8.75;7.25;;;;;;;25.04;57.62;98693.39;1786297;80;25621;-57
2022/06/04 12:02:19;;;;;;;7.87;7.08;;;;;;;25.05;58.37;98692.80;1786025;80;27377;-57
2022/06/04 12:05:03;;;;;;;8.13;6.92;;;;;;;24.96;57.66;98684.05;1786323;80;25641;-57
2022/06/04 12:07:43;;;;;;;8.85;7.25;;;;;;;24.87;58.03;98686.67;1786444;80;25677;-58
2022/06/04 12:10:30;;;;;;;9.35;7.12;;;;;;;24.88;58.10;98695.91;1785168;80;25720;-58
2022/06/04 12:13:24;;;;;;;7.05;6.47;;;;;;;24.86;58.03;98692.09;1786286;80;25391;-58
2022/06/04 12:15:58;;;;;;;7.33;6.62;;;;;;;24.93;57.56;98692.06;1785783;80;27448;-58
2022/06/04 12:18:33;;;;;;;7.50;6.40;;;;;;;24.79;57.23;98688.75;1785756;79;25649;-59
2022/06/04 12:26:41;;;;;;;7.10;6.45;;;;;;;24.79;58.15;98694.95;1785285;80;25711;-58
2022/06/04 12:29:36;;;;;;;7.25;5.55;;;;;;;25.00;57.38;98701.04;1786070;80;27222;-58